Latest Weather Observations for Khancoban

IDN60801

Issued at 7:32 pm EDT Wednesday 10 February 2016 (issued every 30 minutes, with the page automatically refreshed every 10 minutes)

About weather observations | Map of weather stations | Latest weather observations for NSW | Other Formats
Station Details ID: 072162 Name: KHANCOBAN AWS Lat: -36.23 Lon: 148.14 Height: 339.3 m
Data from the previous 72 hours. | See also: Recent months at Khancoban
Date/Time
EDT
Temp
°C
App
Temp
°C
Dew
Point
Rel
Hum
%
Delta-T
°C
Wind Press
QNH
hPa
Press
MSL
hPa
Rain
since 9 am
mm
Dir
 
Spd
km/h
Gust
km/h
Spd
kts
Gust
kts
10/07:30pm 28.7 28.4 13.4 39 9.2 W 7 11 4 6 1011.7 1010.2 0.0
10/07:00pm 30.4 31.1 12.3 33 10.8 CALM 0 0 0 0 1011.4 1009.9 0.0
10/06:30pm 30.6 29.9 10.0 28 11.8 WNW 4 11 2 6 1011.3 1009.8 0.0
10/06:00pm 31.8 31.5 11.6 29 12.0 SSW 4 11 2 6 1011.4 1009.9 0.0
10/05:30pm 31.3 29.8 10.6 28 12.1 N 9 13 5 7 1011.4 1009.9 0.0
10/05:00pm 31.8 30.7 12.1 30 11.8 NW 9 17 5 9 1011.4 1009.9 0.0
10/04:30pm 31.5 30.4 11.8 30 11.7 NW 9 15 5 8 1011.6 1010.1 0.0
10/04:00pm 31.6 29.5 12.4 31 11.5 NNW 15 20 8 11 1012.1 1010.5 0.0
10/03:30pm 31.0 29.9 11.9 31 11.3 NW 9 15 5 8 1012.4 1010.8 0.0
10/03:00pm 31.9 30.3 12.7 31 11.6 NNW 13 19 7 10 1012.8 1011.2 0.0
10/02:30pm 30.7 29.6 12.1 32 11.1 WNW 9 19 5 10 1013.3 1011.8 0.0
10/02:00pm 30.2 29.1 13.0 34 10.4 WNW 11 17 6 9 1013.6 1012.1 0.0
10/01:30pm 29.5 29.0 13.7 38 9.6 W 9 17 5 9 1013.9 1012.4 0.0
10/01:00pm 29.1 27.7 14.5 41 9.0 W 15 20 8 11 1014.1 1012.6 0.0
10/12:30pm 28.3 27.7 15.6 46 7.9 WNW 13 19 7 10 1014.5 1013.0 0.0
10/12:00pm 27.5 26.8 15.5 48 7.4 W 13 20 7 11 1015.0 1013.5 0.0
10/11:30am 27.1 27.4 16.1 51 6.9 WNW 9 15 5 8 1015.5 1014.0 0.0
10/11:00am 26.2 26.7 15.6 52 6.5 SSW 7 13 4 7 1015.9 1014.4 0.0
10/10:30am 24.8 26.1 15.1 54 5.9 NNE 2 9 1 5 1016.1 1014.6 0.0
10/10:00am 23.3 23.7 14.8 59 5.1 N 6 9 3 5 1016.4 1014.9 0.0
10/09:30am 21.5 22.2 14.6 65 4.1 NW 4 7 2 4 1016.6 1015.1 0.0
10/09:00am 19.8 20.6 14.8 73 3.0 NE 4 6 2 3 1016.7 1015.2 0.0
10/08:30am 18.2 19.6 14.5 79 2.2 CALM 0 0 0 0 1016.6 1015.1 0.0
10/08:00am 16.5 17.9 14.5 88 1.2 CALM 0 0 0 0 1016.5 1015.0 0.0
10/07:30am 14.8 15.0 13.0 89 1.0 NE 4 6 2 3 1016.4 1014.9 0.0
10/07:00am 13.7 14.3 11.9 89 1.0 CALM 0 0 0 0 1016.4 1014.9 0.0
10/06:30am 14.1 13.6 12.0 87 1.2 SSE 6 7 3 4 1016.1 1014.6 0.0
10/06:00am 14.0 14.2 11.7 86 1.3 NE 2 7 1 4 1015.7 1014.2 0.0
10/05:30am 14.7 14.2 12.6 87 1.2 NE 7 11 4 6 1015.5 1014.0 0.0
10/05:00am 14.5 14.4 12.0 85 1.4 SSW 4 7 2 4 1015.0 1013.5 0.0
10/04:30am 14.9 14.5 12.4 85 1.4 S 6 7 3 4 1015.0 1013.5 0.0
10/04:00am 15.2 15.9 12.3 83 1.6 CALM 0 0 0 0 1015.0 1013.5 0.0
10/03:30am 15.5 16.2 12.3 81 1.8 CALM 0 0 0 0 1014.9 1013.4 0.0
10/03:00am 16.2 16.3 12.7 80 2.0 E 4 7 2 4 1015.0 1013.5 0.0
10/02:30am 16.5 16.2 13.2 81 1.9 SE 7 9 4 5 1015.2 1013.6 0.0
10/02:00am 16.6 16.4 13.1 80 2.0 NE 6 7 3 4 1015.5 1014.0 0.0
10/01:30am 16.8 17.7 12.9 78 2.2 CALM 0 0 0 0 1015.6 1014.1 0.0
10/01:00am 17.6 17.6 13.7 78 2.2 NE 6 7 3 4 1015.8 1014.3 0.0
10/12:30am 17.7 17.6 13.8 78 2.3 NNE 7 9 4 5 1015.9 1014.4 0.0
10/12:00am 18.8 19.9 14.5 76 2.5 ENE 2 9 1 5 1016.1 1014.6 0.0
 
Date/Time
EDT
Temp
°C
App
Temp
°C
Dew
Point
Rel
Hum
%
Delta-T
°C
Wind Press
QNH
hPa
Press
MSL
hPa
Rain
since 9 am
mm
Dir
 
Spd
km/h
Gust
km/h
Spd
kts
Gust
kts
09/11:30pm 18.3 18.9 14.2 77 2.4 NNE 4 7 2 4 1016.3 1014.8 0.0
09/11:00pm 18.5 19.6 13.6 73 2.8 CALM 0 0 0 0 1016.5 1015.0 0.0
09/10:30pm 20.3 21.6 14.0 67 3.7 CALM 0 0 0 0 1016.6 1015.1 0.0
09/10:00pm 20.4 20.8 13.6 65 4.0 SSE 4 7 2 4 1016.7 1015.2 0.0
09/09:30pm 22.4 23.6 14.8 62 4.6 ENE 2 7 1 4 1016.5 1015.0 0.0
09/09:00pm 22.2 23.5 14.1 60 4.8 CALM 0 0 0 0 1016.2 1014.7 0.0
09/08:30pm 22.9 23.0 13.9 57 5.3 SSE 6 6 3 3 1016.1 1014.6 0.0
09/08:00pm 26.0 26.1 13.8 47 7.3 W 6 7 3 4 1015.9 1014.4 0.0
09/07:30pm 30.1 30.2 13.8 37 9.9 WNW 6 7 3 4 1015.8 1014.3 0.0
09/07:00pm 31.4 30.8 12.2 30 11.5 WNW 7 9 4 5 1015.7 1014.2 0.0
09/06:30pm 31.3 30.5 11.7 30 11.6 NW 7 11 4 6 1015.6 1014.1 0.0
09/06:00pm 31.7 30.6 12.0 30 11.7 WNW 9 13 5 7 1015.7 1014.2 0.0
09/05:30pm 31.6 31.0 12.4 31 11.5 E 7 11 4 6 1015.9 1014.4 0.0
09/05:00pm 31.8 30.0 12.1 30 11.8 WNW 13 24 7 13 1016.3 1014.8 0.0
09/04:30pm 31.9 29.6 11.7 29 12.0 NW 15 22 8 12 1016.5 1015.0 0.0
09/04:00pm 31.3 30.8 12.2 31 11.4 NNW 6 13 3 7 1016.9 1015.4 0.0
09/03:30pm 31.4 30.2 11.7 29 11.7 NW 9 19 5 10 1017.3 1015.8 0.0
09/03:00pm 30.7 29.8 12.6 33 10.8 NNW 9 19 5 10 1017.7 1016.2 0.0
09/02:30pm 30.8 30.1 13.1 34 10.7 NNW 9 15 5 8 1018.1 1016.7 0.0
09/02:00pm 30.5 29.5 13.3 35 10.4 NNW 11 17 6 9 1018.7 1017.2 0.0
09/01:30pm 30.0 29.0 13.3 36 10.1 W 11 17 6 9 1019.0 1017.5 0.0
09/01:00pm 29.9 28.8 13.2 36 10.1 NW 11 20 6 11 1019.3 1017.8 0.0
09/12:30pm 28.5 28.8 15.1 44 8.3 NNW 7 11 4 6 1019.6 1018.1 0.0
09/12:00pm 28.0 29.1 15.6 46 7.7 NE 4 9 2 5 1020.0 1018.5 0.0
09/11:30am 26.4 26.5 14.5 48 7.2 SW 7 11 4 6 1020.4 1018.9 0.0
09/11:00am 25.5 25.7 14.6 51 6.6 WSW 7 13 4 7 1020.6 1019.2 0.0
09/10:30am 24.2 24.8 14.3 54 5.9 SE 4 7 2 4 1020.7 1019.3 0.0
09/10:00am 23.4 23.7 14.4 57 5.4 NE 6 9 3 5 1020.8 1019.4 0.0
09/09:30am 22.7 23.7 15.3 63 4.5 ENE 4 7 2 4 1020.9 1019.5 0.0
09/09:00am 21.1 22.5 14.3 65 4.0 CALM 0 6 0 3 1021.0 1019.6 0.0
09/08:30am 20.4 21.8 14.5 69 3.5 CALM 0 0 0 0 1020.9 1019.5 0.0
09/08:00am 18.7 19.5 14.8 78 2.3 NE 4 7 2 4 1020.8 1019.4 0.0
09/07:30am 17.0 17.5 13.9 82 1.8 NNE 4 7 2 4 1020.6 1019.2 0.0
09/07:00am 16.4 17.3 12.9 80 2.0 CALM 0 4 0 2 1020.3 1018.8 0.0
09/06:30am 16.4 16.2 13.1 81 1.9 SSE 6 9 3 5 1019.9 1018.4 0.0
09/06:00am 17.1 18.2 13.4 79 2.1 CALM 0 7 0 4 1019.6 1018.1 0.0
09/05:30am 16.9 17.5 13.2 79 2.1 NE 2 7 1 4 1019.4 1017.9 0.0
09/05:00am 16.8 17.6 12.7 77 2.3 CALM 0 0 0 0 1019.1 1017.6 0.0
09/04:30am 18.5 18.0 13.8 74 2.7 N 9 11 5 6 1019.0 1017.5 0.0
09/04:00am 18.7 19.2 14.0 74 2.7 ENE 4 7 2 4 1018.9 1017.4 0.0
09/03:30am 17.8 19.0 13.7 77 2.4 CALM 0 0 0 0 1018.8 1017.3 0.0
09/03:00am 18.2 18.0 13.7 75 2.6 SSE 7 9 4 5 1018.7 1017.2 0.0
09/02:30am 19.5 19.6 14.5 73 2.9 NNE 7 9 4 5 1018.8 1017.3 0.0
09/02:00am 19.0 20.5 14.7 76 2.5 CALM 0 0 0 0 1018.7 1017.2 0.0
09/01:30am 19.3 19.6 14.6 74 2.8 NE 6 7 3 4 1018.8 1017.3 0.0
09/01:00am 19.7 20.1 14.7 73 3.0 ENE 6 9 3 5 1018.8 1017.3 0.0
09/12:30am 19.2 20.5 14.0 72 3.0 CALM 0 0 0 0 1018.8 1017.3 0.0
09/12:00am 20.9 21.2 14.5 67 3.8 N 6 11 3 6 1018.7 1017.2 0.0
 
Date/Time
EDT
Temp
°C
App
Temp
°C
Dew
Point
Rel
Hum
%
Delta-T
°C
Wind Press
QNH
hPa
Press
MSL
hPa
Rain
since 9 am
mm
Dir
 
Spd
km/h
Gust
km/h
Spd
kts
Gust
kts
08/11:30pm 22.2 22.6 14.8 63 4.4 WSW 6 9 3 5 1018.5 1017.0 0.0
08/11:00pm 22.2 23.5 15.1 64 4.3 SE 2 7 1 4 1018.6 1017.1 0.0
08/10:30pm 22.7 24.3 14.8 61 4.7 CALM 0 6 0 3 1018.5 1017.0 0.0
08/10:00pm 24.8 25.5 15.7 57 5.6 S 6 11 3 6 1018.1 1016.7 0.0
08/09:30pm 24.0 24.7 15.5 59 5.2 S 6 13 3 7 1017.5 1016.0 0.0
08/09:00pm 24.8 26.4 16.0 58 5.4 SW 2 7 1 4 1017.1 1015.6 0.0
08/08:30pm 25.3 26.4 15.6 55 6.0 ESE 4 9 2 5 1016.8 1015.3 0.0
08/08:00pm 27.0 27.8 14.7 47 7.5 NNW 4 6 2 3 1016.5 1015.0 0.0
08/07:30pm 31.4 31.4 13.6 33 10.9 W 6 9 3 5 1016.3 1014.8 0.0
08/07:00pm 32.3 31.4 12.5 30 11.9 NW 9 13 5 7 1016.0 1014.5 0.0
08/06:30pm 32.8 32.2 12.4 29 12.3 WNW 7 9 4 5 1015.9 1014.4 0.0
08/06:00pm 33.1 32.2 12.7 29 12.4 WSW 9 15 5 8 1015.8 1014.3 0.0
08/05:30pm 33.3 32.3 12.3 28 12.7 W 9 15 5 8 1015.9 1014.4 0.0
08/05:00pm 33.3 32.5 12.9 29 12.4 WSW 9 15 5 8 1016.2 1014.7 0.0
08/04:30pm 32.9 32.4 12.5 29 12.3 WSW 7 13 4 7 1016.5 1015.0 0.0
08/04:00pm 32.4 31.9 12.1 29 12.1 WSW 6 13 3 7 1016.7 1015.2 0.0
08/03:30pm 32.5 31.6 12.7 30 12.0 NNE 9 15 5 8 1017.1 1015.6 0.0
08/03:00pm 32.4 32.0 13.1 31 11.7 WNW 7 19 4 10 1017.4 1015.9 0.0
08/02:30pm 31.9 31.2 13.2 32 11.4 NE 9 15 5 8 1017.7 1016.2 0.0
08/02:00pm 30.8 30.4 13.1 34 10.7 NW 7 15 4 8 1018.4 1016.9 0.0
08/01:30pm 29.8 27.7 11.3 32 10.8 NNW 13 19 7 10 1018.7 1017.2 0.0
08/01:00pm 30.0 28.0 11.5 32 10.8 NW 13 19 7 10 1019.1 1017.6 0.0
08/12:30pm 28.7 27.5 11.7 35 10.0 WNW 9 13 5 7 1019.5 1018.0 0.0
08/12:00pm 27.0 26.3 11.9 39 8.8 NW 7 11 4 6 1019.9 1018.4 0.0
08/11:30am 25.8 25.6 13.0 45 7.6 WNW 6 9 3 5 1020.3 1018.8 0.0
08/11:00am 24.3 23.7 12.3 47 6.9 NNW 7 13 4 7 1020.5 1019.0 0.0
08/10:30am 23.5 23.0 11.9 48 6.7 NNE 6 9 3 5 1020.7 1019.3 0.0
08/10:00am 22.6 22.1 12.0 51 6.1 N 6 9 3 5 1020.8 1019.4 0.0
08/09:30am 21.0 21.1 11.6 55 5.3 N 2 7 1 4 1020.9 1019.5 0.0
08/09:00am 20.0 20.0 12.3 61 4.4 ENE 4 7 2 4 1020.9 1019.5 0.0
08/08:30am 18.1 18.8 12.3 69 3.3 CALM 0 7 0 4 1021.0 1019.6 0.0
08/08:00am 15.9 16.6 12.3 79 2.0 CALM 0 4 0 2 1020.9 1019.5 0.0
08/07:30am 12.9 12.3 10.4 85 1.3 ESE 4 7 2 4 1020.7 1019.3 0.0
08/07:00am 12.8 11.6 9.6 81 1.7 NNE 6 9 3 5 1020.4 1018.9 0.0
08/06:30am 13.9 12.8 10.1 78 2.0 SE 6 7 3 4 1020.1 1018.6 0.0
08/06:00am 13.8 12.7 9.8 77 2.1 SSE 6 7 3 4 1019.7 1018.2 0.0
08/05:30am 13.2 12.1 9.8 80 1.8 SSE 6 6 3 3 1019.5 1018.0 0.0
08/05:00am 14.1 13.4 10.1 77 2.1 NE 4 6 2 3 1019.3 1017.8 0.0
08/04:30am 13.5 13.5 9.9 79 1.9 CALM 0 0 0 0 1019.3 1017.8 0.0
08/04:00am 14.0 14.1 10.2 78 2.0 CALM 0 0 0 0 1019.3 1017.8 0.0
08/03:30am 13.9 13.0 10.7 81 1.7 SE 6 9 3 5 1019.3 1017.8 0.0
08/03:00am 14.4 14.5 10.2 76 2.2 CALM 0 0 0 0 1019.5 1018.0 0.0
08/02:30am 15.8 16.1 10.8 72 2.7 CALM 0 0 0 0 1019.4 1017.9 0.0
08/02:00am 15.8 16.1 10.8 72 2.7 CALM 0 0 0 0 1019.2 1017.7 0.0
08/01:30am 17.0 17.4 11.3 69 3.1 CALM 0 0 0 0 1019.0 1017.5 0.0
08/01:00am 16.6 17.0 11.3 71 2.9 CALM 0 0 0 0 1018.9 1017.4 0.0
08/12:30am 16.8 16.5 11.3 70 3.0 ENE 4 7 2 4 1018.8 1017.3 0.0
08/12:00am 17.0 17.2 11.7 71 2.9 SSE 2 7 1 4 1018.8 1017.3 0.0
 
Date/Time
EDT
Temp
°C
App
Temp
°C
Dew
Point
Rel
Hum
%
Delta-T
°C
Wind Press
QNH
hPa
Press
MSL
hPa
Rain
since 9 am
mm
Dir
 
Spd
km/h
Gust
km/h
Spd
kts
Gust
kts
07/11:30pm 18.4 18.1 12.6 69 3.3 SSE 6 9 3 5 1018.5 1017.0 0.0
07/11:00pm 18.6 19.5 12.8 69 3.3 CALM 0 9 0 5 1018.2 1016.8 0.0
07/10:30pm 18.9 18.8 13.3 70 3.2 SSE 6 9 3 5 1018.1 1016.7 0.0
07/10:00pm 19.6 21.2 14.8 74 2.8 CALM 0 0 0 0 1018.0 1016.6 0.0
07/09:30pm 19.6 19.8 14.6 73 3.0 S 7 9 4 5 1017.6 1016.1 0.0
07/09:00pm 21.5 23.2 17.1 76 2.7 E 4 7 2 4 1017.1 1015.6 0.0
07/08:30pm 22.6 25.3 17.7 74 3.1 CALM 0 0 0 0 1016.6 1015.1 0.0
07/08:00pm 23.6 25.4 18.3 72 3.4 NW 6 7 3 4 1016.2 1014.7 0.0

Other Formats:

Comma delimited format used in spreadsheet applications
http://www.bom.gov.au/fwo/IDN60801/IDN60801.94919.axf

JavaScript Object Notation format (JSON) in row-major order
http://www.bom.gov.au/fwo/IDN60801/IDN60801.94919.json